createdAt,value
2019-05-06T00:02:05.197Z,9.60
2019-05-06T00:04:35.281Z,8.17
2019-05-06T00:07:05.364Z,7.30
2019-05-06T00:09:35.528Z,10.20
2019-05-06T00:12:05.982Z,7.77
2019-05-06T00:14:36.153Z,7.80
2019-05-06T00:17:06.526Z,9.77
2019-05-06T00:19:36.549Z,8.47
2019-05-06T00:22:06.755Z,6.97
2019-05-06T00:24:49.123Z,7.50
2019-05-06T00:27:28.797Z,7.40
2019-05-06T00:29:58.946Z,11.33
2019-05-06T00:32:29.116Z,10.03
2019-05-06T00:34:59.183Z,10.90
2019-05-06T00:37:29.304Z,10.87
2019-05-06T00:40:07.439Z,9.20
2019-05-06T00:43:04.673Z,8.57
2019-05-06T00:45:34.448Z,11.03
2019-05-06T00:48:04.753Z,11.00
2019-05-06T00:50:34.931Z,10.53
2019-05-06T00:53:09.500Z,9.27
2019-05-06T00:55:39.487Z,9.97
2019-05-06T00:58:09.613Z,7.13
2019-05-06T01:00:39.699Z,8.27
2019-05-06T01:03:09.835Z,9.27
2019-05-06T01:05:40.025Z,9.70
2019-05-06T01:08:10.075Z,9.93
2019-05-06T01:10:40.324Z,12.67
2019-05-06T01:13:35.095Z,10.43
2019-05-06T01:16:05.614Z,8.77
2019-05-06T01:18:35.589Z,9.80
2019-05-06T01:21:11.617Z,9.60
2019-05-06T01:23:44.409Z,11.07
2019-05-06T01:26:15.739Z,8.50
2019-05-06T01:28:46.770Z,9.23
2019-05-06T01:31:16.954Z,10.80
2019-05-06T01:33:46.999Z,9.43
2019-05-06T01:36:17.049Z,11.40
2019-05-06T01:38:59.446Z,10.73
2019-05-06T01:41:57.153Z,11.53
2019-05-06T01:44:27.160Z,10.80
2019-05-06T01:46:57.205Z,8.33
2019-05-06T01:49:28.885Z,9.67
2019-05-06T01:51:58.856Z,9.80
2019-05-06T01:54:29.018Z,9.90
2019-05-06T01:56:59.107Z,18.67
2019-05-06T01:59:29.281Z,10.43
2019-05-06T02:02:01.220Z,11.87
2019-05-06T02:04:31.159Z,10.87
2019-05-06T02:07:01.116Z,11.10
2019-05-06T02:09:34.866Z,12.63
2019-05-06T02:12:06.725Z,11.43
2019-05-06T02:14:38.840Z,15.63
2019-05-06T02:17:10.814Z,10.90
2019-05-06T02:19:40.883Z,12.57
2019-05-06T02:22:29.857Z,11.67
2019-05-06T02:25:13.815Z,14.57
2019-05-06T02:27:44.502Z,12.60
2019-05-06T02:30:40.455Z,13.47
2019-05-06T02:33:19.979Z,10.77
2019-05-06T02:36:08.867Z,9.80
2019-05-06T02:38:46.723Z,12.30
2019-05-06T02:41:13.304Z,12.97
2019-05-06T02:43:43.471Z,11.97
2019-05-06T02:46:13.710Z,12.33
2019-05-06T02:49:08.256Z,10.70
2019-05-06T02:51:38.191Z,11.67
2019-05-06T02:54:08.279Z,12.17
2019-05-06T02:56:38.356Z,14.23
2019-05-06T02:59:08.404Z,11.03
2019-05-06T03:01:38.677Z,14.63
2019-05-06T03:04:08.661Z,14.30
2019-05-06T03:06:38.867Z,12.03
2019-05-06T03:09:08.933Z,15.93
2019-05-06T03:11:38.925Z,13.57
2019-05-06T03:14:08.887Z,18.23
2019-05-06T03:16:38.909Z,12.30
2019-05-06T03:19:13.192Z,14.07
2019-05-06T03:22:13.449Z,13.67
2019-05-06T03:24:49.433Z,14.13
2019-05-06T03:27:19.505Z,14.27
2019-05-06T03:29:49.606Z,14.27
2019-05-06T03:32:24.690Z,16.40
2019-05-06T03:35:07.915Z,13.23
2019-05-06T03:37:23.899Z,14.37
2019-05-06T03:39:54.109Z,17.40
2019-05-06T03:42:24.093Z,16.10
2019-05-06T03:44:58.414Z,15.90
2019-05-06T03:47:54.099Z,15.83
2019-05-06T03:50:23.974Z,15.07
2019-05-06T03:52:56.521Z,15.20
2019-05-06T03:55:27.718Z,14.23
2019-05-06T03:57:58.116Z,16.50
2019-05-06T04:00:27.953Z,17.60
2019-05-06T04:02:58.157Z,15.53
2019-05-06T04:05:28.182Z,15.30
2019-05-06T04:07:58.680Z,15.10
2019-05-06T04:10:28.787Z,14.00
2019-05-06T04:13:03.912Z,14.90
2019-05-06T04:15:53.952Z,15.43
2019-05-06T04:18:25.085Z,16.27
2019-05-06T04:21:08.610Z,16.33
2019-05-06T04:24:08.109Z,14.60
2019-05-06T04:26:57.132Z,14.87
2019-05-06T04:29:29.515Z,18.00
2019-05-06T04:31:59.940Z,13.40
2019-05-06T04:34:33.146Z,17.47
2019-05-06T04:37:03.599Z,18.33
2019-05-06T04:39:34.137Z,14.80
2019-05-06T04:42:09.209Z,17.63
2019-05-06T04:44:38.634Z,17.60
2019-05-06T04:47:08.886Z,17.77
2019-05-06T04:49:38.836Z,16.70
2019-05-06T04:52:09.103Z,18.83
2019-05-06T04:54:39.675Z,18.07
2019-05-06T04:57:12.696Z,13.33
2019-05-06T04:59:43.279Z,15.80
2019-05-06T05:02:13.409Z,17.03
2019-05-06T05:04:43.660Z,17.70
2019-05-06T05:07:13.811Z,14.57
2019-05-06T05:09:44.043Z,21.30
2019-05-06T05:12:22.702Z,20.73
2019-05-06T05:15:06.048Z,16.33
2019-05-06T05:17:43.917Z,13.40
2019-05-06T05:20:14.578Z,15.73
2019-05-06T05:22:44.601Z,14.50
2019-05-06T05:25:15.054Z,16.33
2019-05-06T05:27:45.164Z,15.43
2019-05-06T05:30:15.219Z,13.93
2019-05-06T05:32:45.280Z,14.93
2019-05-06T05:35:15.481Z,14.83
2019-05-06T05:37:45.646Z,15.93
2019-05-06T05:40:18.612Z,20.00
2019-05-06T05:43:11.750Z,13.17
2019-05-06T05:45:42.453Z,13.33
2019-05-06T05:48:23.587Z,13.77
2019-05-06T05:50:54.071Z,16.47
2019-05-06T05:53:24.227Z,13.70
2019-05-06T05:55:54.707Z,14.43
2019-05-06T05:58:25.131Z,12.93
2019-05-06T06:00:55.355Z,11.90
2019-05-06T06:03:25.422Z,13.97
2019-05-06T06:05:57.015Z,16.30
2019-05-06T06:08:27.730Z,14.03
2019-05-06T06:11:08.050Z,20.17
2019-05-06T06:13:38.349Z,13.23
2019-05-06T06:16:27.629Z,14.27
2019-05-06T06:19:23.044Z,11.60
2019-05-06T06:22:02.598Z,13.70
2019-05-06T06:24:33.887Z,21.23
2019-05-06T06:27:04.163Z,14.17
2019-05-06T06:29:34.523Z,10.73
2019-05-06T06:32:15.200Z,14.53
2019-05-06T06:35:11.367Z,19.03
2019-05-06T06:37:52.426Z,11.03
2019-05-06T06:40:24.765Z,15.77
2019-05-06T06:43:01.934Z,19.37
2019-05-06T06:45:32.633Z,14.07
2019-05-06T06:48:03.281Z,13.03
2019-05-06T06:50:33.618Z,11.77
2019-05-06T06:53:04.024Z,11.60
2019-05-06T06:55:34.101Z,14.50
2019-05-06T06:58:22.577Z,12.90
2019-05-06T07:01:12.237Z,11.80
2019-05-06T07:03:52.859Z,9.97
2019-05-06T07:06:48.466Z,11.53
2019-05-06T07:09:18.854Z,14.23
2019-05-06T07:11:52.584Z,10.17
2019-05-06T07:14:22.786Z,14.57
2019-05-06T07:16:53.428Z,12.70
2019-05-06T07:19:32.622Z,9.73
2019-05-06T07:22:02.884Z,10.63
2019-05-06T07:24:33.210Z,12.60
2019-05-06T07:27:16.424Z,13.10
2019-05-06T07:29:52.782Z,12.03
2019-05-06T07:32:23.267Z,12.93
2019-05-06T07:34:53.799Z,10.57
2019-05-06T07:37:24.130Z,11.17
2019-05-06T07:39:54.535Z,11.90
2019-05-06T07:42:32.170Z,9.10
2019-05-06T07:45:26.821Z,9.63
2019-05-06T07:48:19.377Z,5.93
2019-05-06T07:50:57.117Z,10.00
2019-05-06T07:53:27.508Z,11.77
2019-05-06T07:56:22.288Z,9.73
2019-05-06T07:58:52.905Z,11.27
2019-05-06T08:01:35.174Z,8.03
2019-05-06T08:04:13.117Z,9.70
2019-05-06T08:06:43.358Z,7.97
2019-05-06T08:09:13.991Z,11.20
2019-05-06T08:11:46.106Z,10.57
2019-05-06T08:14:16.620Z,11.07
2019-05-06T08:17:02.350Z,8.13
2019-05-06T08:22:56.305Z,7.00
2019-05-06T08:25:48.999Z,5.37
2019-05-06T08:28:44.455Z,7.07
2019-05-06T08:31:12.815Z,7.80
2019-05-06T08:33:49.475Z,8.77
2019-05-06T08:36:27.138Z,8.20
2019-05-06T08:38:57.696Z,8.60
2019-05-06T08:41:28.340Z,8.00
2019-05-06T08:43:58.362Z,8.33
2019-05-06T08:46:28.598Z,7.43
2019-05-06T08:48:58.774Z,8.27
2019-05-06T08:52:02.411Z,11.90
2019-05-06T08:54:40.570Z,6.30
2019-05-06T08:57:11.877Z,9.30
2019-05-06T08:59:42.461Z,7.37
2019-05-06T09:02:13.710Z,8.53
2019-05-06T09:04:44.373Z,8.37
2019-05-06T09:07:14.493Z,7.43
2019-05-06T09:09:44.779Z,12.47
2019-05-06T09:12:15.200Z,7.83
2019-05-06T09:14:53.339Z,11.80
2019-05-06T09:18:06.539Z,8.07
2019-05-06T09:24:32.095Z,8.33
2019-05-06T09:27:12.300Z,11.07
2019-05-06T09:29:46.697Z,8.03
2019-05-06T09:32:22.747Z,6.27
2019-05-06T09:34:58.067Z,8.03
2019-05-06T09:37:28.321Z,7.17
2019-05-06T09:39:58.482Z,6.60
2019-05-06T09:42:28.727Z,8.40
2019-05-06T09:44:58.850Z,4.53
2019-05-06T09:47:52.956Z,7.90
2019-05-06T09:50:37.993Z,7.73
2019-05-06T09:53:13.059Z,7.00
2019-05-06T09:55:48.952Z,5.87
2019-05-06T09:58:19.123Z,5.07
2019-05-06T10:00:52.029Z,4.10
2019-05-06T10:03:22.631Z,6.53
2019-05-06T10:05:53.255Z,6.57
2019-05-06T10:08:23.548Z,6.70
2019-05-06T10:10:58.957Z,6.73
2019-05-06T10:13:25.480Z,5.17
2019-05-06T10:15:57.677Z,5.13
2019-05-06T10:18:27.603Z,4.57
2019-05-06T10:20:57.921Z,8.80
2019-05-06T10:23:28.417Z,5.67
2019-05-06T10:25:58.939Z,6.60
2019-05-06T10:28:48.150Z,6.33
2019-05-06T10:31:21.868Z,5.93
2019-05-06T10:34:09.328Z,5.50
2019-05-06T10:37:12.612Z,7.17
2019-05-06T10:39:37.976Z,8.30
2019-05-06T10:42:13.233Z,8.87
2019-05-06T10:45:09.172Z,6.87
2019-05-06T10:47:39.415Z,7.10
2019-05-06T10:50:12.438Z,7.37
2019-05-06T10:53:02.721Z,8.17
2019-05-06T10:55:32.708Z,7.57
2019-05-06T10:58:03.138Z,6.50
2019-05-06T11:00:33.759Z,6.73
2019-05-06T11:03:14.737Z,7.90
2019-05-06T11:05:43.898Z,7.63
2019-05-06T11:08:14.133Z,6.53
2019-05-06T11:10:45.606Z,7.07
2019-05-06T11:13:16.499Z,6.90
2019-05-06T11:15:46.915Z,8.07
2019-05-06T11:18:17.182Z,6.10
2019-05-06T11:20:47.489Z,12.50
2019-05-06T11:23:17.850Z,8.50
2019-05-06T11:25:48.341Z,9.70
2019-05-06T11:28:36.072Z,8.53
2019-05-06T11:31:14.190Z,8.47
2019-05-06T11:33:54.549Z,8.90
2019-05-06T11:36:28.804Z,10.57
2019-05-06T11:38:59.105Z,8.47
2019-05-06T11:41:29.580Z,8.80
2019-05-06T11:44:00.357Z,12.17
2019-05-06T11:46:32.224Z,11.70
2019-05-06T11:49:33.541Z,6.80
2019-05-06T11:52:03.912Z,9.13
2019-05-06T11:54:34.592Z,9.20
2019-05-06T11:57:06.574Z,10.77
2019-05-06T11:59:36.828Z,14.10
2019-05-06T12:02:08.880Z,9.37
2019-05-06T12:04:39.070Z,7.20
2019-05-06T12:07:14.631Z,10.63
2019-05-06T12:09:41.788Z,9.70
2019-05-06T12:12:12.913Z,11.90
2019-05-06T12:14:43.484Z,11.13
2019-05-06T12:17:13.798Z,13.50
2019-05-06T12:19:43.845Z,14.30
2019-05-06T12:22:14.257Z,10.20
2019-05-06T12:24:44.550Z,8.33
2019-05-06T12:27:33.534Z,13.07
2019-05-06T12:30:05.254Z,10.87
2019-05-06T12:32:43.167Z,15.77
2019-05-06T12:35:12.997Z,9.33
2019-05-06T12:37:44.765Z,12.73
2019-05-06T12:40:15.127Z,14.07
2019-05-06T12:42:49.515Z,9.57
2019-05-06T12:45:36.315Z,11.17
2019-05-06T12:48:13.023Z,10.03
2019-05-06T12:50:43.082Z,11.77
2019-05-06T12:53:13.788Z,10.03
2019-05-06T12:55:44.090Z,11.03
2019-05-06T12:58:14.359Z,10.40
2019-05-06T13:00:45.172Z,10.33
2019-05-06T13:03:16.670Z,9.93
2019-05-06T13:05:47.661Z,12.00
2019-05-06T13:08:19.999Z,12.47
2019-05-06T13:10:49.894Z,12.03
2019-05-06T13:13:53.208Z,12.87
2019-05-06T13:16:12.545Z,12.33
2019-05-06T13:18:47.658Z,9.40
2019-05-06T13:21:14.864Z,11.23
2019-05-06T13:23:49.454Z,8.43
2019-05-06T13:26:22.107Z,13.47
2019-05-06T13:28:56.538Z,12.43
2019-05-06T13:31:27.279Z,10.00
2019-05-06T13:34:15.946Z,11.40
2019-05-06T13:36:46.567Z,12.50
2019-05-06T13:39:17.042Z,9.93
2019-05-06T13:41:47.285Z,11.37
2019-05-06T13:44:19.416Z,10.50
2019-05-06T13:46:53.274Z,10.47
2019-05-06T13:49:48.697Z,10.90
2019-05-06T13:52:22.964Z,10.27
2019-05-06T13:54:53.546Z,9.17
2019-05-06T13:57:23.748Z,10.00
2019-05-06T13:59:53.793Z,11.03
2019-05-06T14:02:30.185Z,8.53
2019-05-06T14:05:02.749Z,9.60
2019-05-06T14:07:34.462Z,7.13
2019-05-06T14:10:04.628Z,12.40
2019-05-06T14:12:35.317Z,9.30
2019-05-06T14:15:06.702Z,10.93
2019-05-06T14:17:37.041Z,10.33
2019-05-06T14:20:08.128Z,10.87
2019-05-06T14:22:38.292Z,10.70
2019-05-06T14:25:36.827Z,9.70
2019-05-06T14:28:14.459Z,11.03
2019-05-06T14:31:03.672Z,8.60
2019-05-06T14:33:33.846Z,9.27
2019-05-06T14:36:04.172Z,12.40
2019-05-06T14:38:34.516Z,8.23
2019-05-06T14:41:13.136Z,13.63
2019-05-06T14:43:43.418Z,8.73
2019-05-06T14:46:13.676Z,10.10
2019-05-06T14:48:43.880Z,9.50
2019-05-06T14:51:14.020Z,9.73
2019-05-06T14:53:44.301Z,10.40
2019-05-06T14:56:36.351Z,8.57
2019-05-06T14:59:07.745Z,10.93
2019-05-06T15:01:40.412Z,9.40
2019-05-06T15:04:12.563Z,10.63
2019-05-06T15:06:42.755Z,10.23
2019-05-06T15:13:37.281Z,9.47
2019-05-06T15:16:07.473Z,8.87
2019-05-06T15:18:37.680Z,10.77
2019-05-06T15:21:30.056Z,11.50
2019-05-06T15:23:42.295Z,10.97
2019-05-06T15:26:12.347Z,7.97
2019-05-06T15:28:42.814Z,10.83
2019-05-06T15:31:20.019Z,10.70
2019-05-06T15:33:52.941Z,11.40
2019-05-06T15:36:28.969Z,7.53
2019-05-06T15:38:59.278Z,7.90
2019-05-06T15:41:29.353Z,7.97
2019-05-06T15:43:59.459Z,7.37
2019-05-06T15:46:29.707Z,9.07
2019-05-06T15:48:59.844Z,12.07
2019-05-06T15:51:35.989Z,7.53
2019-05-06T15:54:09.100Z,12.43
2019-05-06T15:56:39.485Z,9.17
2019-05-06T15:59:11.985Z,12.13
2019-05-06T16:01:43.165Z,7.67
2019-05-06T16:04:13.282Z,10.53
2019-05-06T16:06:44.732Z,8.80
2019-05-06T16:09:15.019Z,7.47
2019-05-06T16:11:45.260Z,9.70
2019-05-06T16:14:15.338Z,9.20
2019-05-06T16:16:45.351Z,8.30
2019-05-06T16:19:15.444Z,7.80
2019-05-06T16:21:45.422Z,8.23
2019-05-06T16:24:22.864Z,9.43
2019-05-06T16:26:52.887Z,8.90
2019-05-06T16:29:35.866Z,7.13
2019-05-06T16:32:08.710Z,8.20
2019-05-06T16:34:38.719Z,7.37
2019-05-06T16:37:08.680Z,7.53
2019-05-06T16:39:38.760Z,8.00
2019-05-06T16:42:09.699Z,9.30
2019-05-06T16:44:39.827Z,10.43
2019-05-06T16:47:11.812Z,9.93
2019-05-06T16:49:42.293Z,8.30
2019-05-06T16:52:13.009Z,7.23
2019-05-06T16:54:43.323Z,10.80
2019-05-06T16:57:17.127Z,10.50
2019-05-06T16:59:47.264Z,10.47
2019-05-06T17:02:23.286Z,10.00
2019-05-06T17:05:18.694Z,10.03
2019-05-06T17:07:49.524Z,12.40
2019-05-06T17:10:19.775Z,9.13
2019-05-06T17:12:53.484Z,8.63
2019-05-06T17:15:23.014Z,10.07
2019-05-06T17:17:53.281Z,8.93
2019-05-06T17:20:23.300Z,7.03
2019-05-06T17:22:53.423Z,10.30
2019-05-06T17:25:23.517Z,8.67
2019-05-06T17:27:53.589Z,8.33
2019-05-06T17:30:51.116Z,9.97
2019-05-06T17:33:42.789Z,10.67
2019-05-06T17:36:14.721Z,9.10
2019-05-06T17:38:47.470Z,10.03
2019-05-06T17:41:17.672Z,8.20
2019-05-06T17:43:48.024Z,10.57
2019-05-06T17:46:22.225Z,10.60
2019-05-06T17:49:02.379Z,9.87
2019-05-06T17:51:39.387Z,8.87
2019-05-06T17:54:09.585Z,10.67
2019-05-06T17:56:41.779Z,9.13
2019-05-06T17:59:11.378Z,9.57
2019-05-06T18:01:45.057Z,8.80
2019-05-06T18:04:15.297Z,8.40
2019-05-06T18:06:45.334Z,8.03
2019-05-06T18:09:15.362Z,9.30
2019-05-06T18:11:57.842Z,8.57
2019-05-06T18:14:17.810Z,9.37
2019-05-06T18:16:48.051Z,11.10
2019-05-06T18:19:18.453Z,9.13
2019-05-06T18:21:48.796Z,9.60
2019-05-06T18:24:18.798Z,10.70
2019-05-06T18:26:49.066Z,9.10
2019-05-06T18:29:19.221Z,8.53
2019-05-06T18:31:49.377Z,8.53
2019-05-06T18:34:19.647Z,8.97
2019-05-06T18:36:49.777Z,7.67
2019-05-06T18:39:22.079Z,11.03
2019-05-06T18:41:53.109Z,10.63
2019-05-06T18:44:24.014Z,7.83
2019-05-06T18:46:54.348Z,11.33
2019-05-06T18:49:24.799Z,8.27
2019-05-06T18:51:55.007Z,8.73
2019-05-06T18:54:25.867Z,11.80
2019-05-06T18:56:56.138Z,8.47
2019-05-06T18:59:26.275Z,10.13
2019-05-06T19:01:56.612Z,9.90
2019-05-06T19:04:35.861Z,9.73
2019-05-06T19:07:13.681Z,11.40
2019-05-06T19:09:56.971Z,9.67
2019-05-06T19:12:31.895Z,9.77
2019-05-06T19:14:58.945Z,13.27
2019-05-06T19:17:29.130Z,9.70
2019-05-06T19:19:59.287Z,10.93
2019-05-06T19:22:29.340Z,13.83
2019-05-06T19:24:59.514Z,10.43
2019-05-06T19:27:29.665Z,9.73
2019-05-06T19:30:02.191Z,11.77
2019-05-06T19:32:34.891Z,13.00
2019-05-06T19:35:03.366Z,9.70
2019-05-06T19:37:33.529Z,11.10
2019-05-06T19:40:03.905Z,14.80
2019-05-06T19:42:46.354Z,12.20
2019-05-06T19:45:06.459Z,11.00
2019-05-06T19:47:36.453Z,12.33
2019-05-06T19:50:07.136Z,10.67
2019-05-06T19:52:37.194Z,10.80
2019-05-06T19:55:07.762Z,13.50
2019-05-06T19:57:37.864Z,10.97
2019-05-06T20:00:08.448Z,10.90
2019-05-06T20:02:38.460Z,14.77
2019-05-06T20:05:16.044Z,12.53
2019-05-06T20:07:56.787Z,16.23
2019-05-06T20:10:43.167Z,10.33
2019-05-06T20:13:13.612Z,13.10
2019-05-06T20:15:43.918Z,10.57
2019-05-06T20:18:13.982Z,12.37
2019-05-06T20:20:43.995Z,10.43
2019-05-06T20:23:14.163Z,12.50
2019-05-06T20:25:44.945Z,12.00
2019-05-06T20:28:15.231Z,13.73
2019-05-06T20:30:45.208Z,12.73
2019-05-06T20:33:15.289Z,11.73
2019-05-06T20:35:45.299Z,12.67
2019-05-06T20:38:15.494Z,12.03
2019-05-06T20:40:45.515Z,11.60
2019-05-06T20:43:20.461Z,14.73
2019-05-06T20:45:47.320Z,11.83
2019-05-06T20:48:17.226Z,13.57
2019-05-06T20:50:47.207Z,12.97
2019-05-06T20:53:17.222Z,14.03
2019-05-06T20:55:47.226Z,16.17
2019-05-06T20:58:17.199Z,14.20
2019-05-06T21:00:47.282Z,14.00
2019-05-06T21:03:17.355Z,12.87
2019-05-06T21:05:47.427Z,11.33
2019-05-06T21:08:17.477Z,15.63
2019-05-06T21:10:49.684Z,11.67
2019-05-06T21:13:29.666Z,12.67
2019-05-06T21:15:50.894Z,11.97
2019-05-06T21:18:22.766Z,14.10
2019-05-06T21:20:52.499Z,14.23
2019-05-06T21:23:22.806Z,12.70
2019-05-06T21:25:52.910Z,12.13
2019-05-06T21:28:23.767Z,14.63
2019-05-06T21:30:54.082Z,15.03
2019-05-06T21:33:24.087Z,12.47
2019-05-06T21:35:54.427Z,13.20
2019-05-06T21:38:24.530Z,10.33
2019-05-06T21:40:54.605Z,14.53
2019-05-06T21:43:24.671Z,13.77
2019-05-06T21:45:54.851Z,11.73
2019-05-06T21:48:24.835Z,12.83
2019-05-06T21:50:54.919Z,12.70
2019-05-06T21:53:24.987Z,11.23
2019-05-06T21:55:55.064Z,12.37
2019-05-06T21:58:25.094Z,11.17
2019-05-06T22:01:03.331Z,12.83
2019-05-06T22:03:33.400Z,12.53
2019-05-06T22:06:03.637Z,13.53
2019-05-06T22:08:33.748Z,14.67
2019-05-06T22:11:03.870Z,11.53
2019-05-06T22:13:58.912Z,12.20
2019-05-06T22:16:19.527Z,14.03
2019-05-06T22:18:49.586Z,12.87
2019-05-06T22:21:26.332Z,14.67
2019-05-06T22:24:04.329Z,14.27
2019-05-06T22:26:34.174Z,12.83
2019-05-06T22:29:04.620Z,12.17
2019-05-06T22:31:34.931Z,12.03
2019-05-06T22:34:05.016Z,12.73
2019-05-06T22:36:35.075Z,10.50
2019-05-06T22:39:06.756Z,11.87
2019-05-06T22:41:36.812Z,13.17
2019-05-06T22:44:13.612Z,11.30
2019-05-06T22:46:38.638Z,14.17
2019-05-06T22:49:08.694Z,13.20
2019-05-06T22:51:38.661Z,12.47
2019-05-06T22:54:08.784Z,10.23
2019-05-06T22:56:38.932Z,12.37
2019-05-06T22:59:08.922Z,12.43
2019-05-06T23:01:54.587Z,11.73
2019-05-06T23:04:26.736Z,11.07
2019-05-06T23:06:56.807Z,12.83
2019-05-06T23:09:26.856Z,15.00
2019-05-06T23:11:56.993Z,11.17
2019-05-06T23:14:31.527Z,11.80
2019-05-06T23:16:58.620Z,12.50
2019-05-06T23:19:28.507Z,12.77
2019-05-06T23:21:58.453Z,13.90
2019-05-06T23:24:28.444Z,10.10
2019-05-06T23:26:58.411Z,12.97
2019-05-06T23:29:28.441Z,12.13
2019-05-06T23:31:58.496Z,13.13
2019-05-06T23:34:28.555Z,11.27
2019-05-06T23:37:23.434Z,13.20
2019-05-06T23:40:47.002Z,9.80
2019-05-06T23:43:52.585Z,12.93
2019-05-06T23:46:58.277Z,13.40
2019-05-06T23:50:04.104Z,12.57
2019-05-06T23:53:09.594Z,11.57
2019-05-06T23:56:15.222Z,11.67
2019-05-06T23:58:45.239Z,12.67
